Time;durP1;ratioP1;P1;durP2;ratioP2;P2;SDS_P1;SDS_P2;PMS_P1;PMS_P2;Temp;Humidity;BMP_temperature;BMP_pressure;BME280_temperature;BME280_humidity;BME280_pressure;Samples;Min_cycle;Max_cycle;Signal;HPM_P1;HPM_P2
2020/12/29 00:01:50;;;;;;;5.53;4.90;;;2.50;99.90;;;;;;5052203;28;20582;-72
2020/12/29 00:04:17;;;;;;;6.30;5.70;;;2.50;99.90;;;;;;5040122;28;20178;-72
2020/12/29 00:06:49;;;;;;;6.97;6.37;;;2.50;99.90;;;;;;5032661;28;20758;-72
2020/12/29 00:09:16;;;;;;;7.00;5.13;;;2.30;99.90;;;;;;5032592;28;20533;-72
2020/12/29 00:11:43;;;;;;;7.37;5.57;;;2.20;99.90;;;;;;5032303;28;21193;-72
2020/12/29 00:14:09;;;;;;;7.50;5.63;;;2.20;99.90;;;;;;5032429;28;20437;-72
2020/12/29 00:16:34;;;;;;;8.37;5.17;;;2.20;99.90;;;;;;5031126;28;20425;-72
2020/12/29 00:19:00;;;;;;;8.23;6.27;;;2.30;99.90;;;;;;5031892;28;20406;-72
2020/12/29 00:21:26;;;;;;;7.77;5.10;;;2.30;99.90;;;;;;5032531;28;20286;-72
2020/12/29 00:23:51;;;;;;;5.20;4.63;;;2.40;99.90;;;;;;5032363;28;20767;-72
2020/12/29 00:26:17;;;;;;;5.27;4.70;;;2.50;99.90;;;;;;5034332;28;20180;-72
2020/12/29 00:28:43;;;;;;;9.03;5.50;;;2.60;99.90;;;;;;5051757;28;20210;-72
2020/12/29 00:31:10;;;;;;;7.23;5.03;;;2.60;99.90;;;;;;5049310;28;20490;-72
2020/12/29 00:33:36;;;;;;;6.03;5.43;;;2.60;99.90;;;;;;5051404;28;20428;-72
2020/12/29 00:36:02;;;;;;;5.90;4.40;;;2.70;99.90;;;;;;5037497;28;20521;-72
2020/12/29 00:38:28;;;;;;;4.60;3.83;;;2.70;99.90;;;;;;5047441;28;20882;-73
2020/12/29 00:40:53;;;;;;;4.57;4.17;;;2.60;99.90;;;;;;5043583;28;20454;-72
2020/12/29 00:43:19;;;;;;;5.97;5.13;;;2.70;99.90;;;;;;5040547;28;20211;-72
2020/12/29 00:45:45;;;;;;;5.37;4.87;;;2.70;99.90;;;;;;5031996;28;20657;-72
2020/12/29 00:48:10;;;;;;;4.80;4.20;;;2.70;99.90;;;;;;5049697;28;20266;-72
2020/12/29 00:50:36;;;;;;;5.00;4.13;;;2.70;99.90;;;;;;5051088;28;20175;-72
2020/12/29 00:53:02;;;;;;;5.10;4.47;;;2.80;99.90;;;;;;5032989;28;20195;-72
2020/12/29 00:55:29;;;;;;;4.87;4.33;;;2.80;99.90;;;;;;5035537;28;20788;-73
2020/12/29 00:57:54;;;;;;;5.83;4.87;;;2.80;99.90;;;;;;5035948;28;20986;-72
2020/12/29 01:00:20;;;;;;;6.33;5.53;;;2.80;99.90;;;;;;5034036;28;20434;-72
2020/12/29 01:02:46;;;;;;;5.00;4.50;;;2.80;99.90;;;;;;5040022;28;20214;-72
2020/12/29 01:05:11;;;;;;;6.10;4.50;;;2.80;99.90;;;;;;5041497;28;20186;-73
2020/12/29 01:07:37;;;;;;;5.77;4.93;;;2.70;99.90;;;;;;5051680;28;20693;-72
2020/12/29 01:10:04;;;;;;;5.23;4.70;;;2.70;99.90;;;;;;5033783;28;20690;-73
2020/12/29 01:12:30;;;;;;;8.80;6.10;;;2.70;99.90;;;;;;5030931;28;20456;-73
2020/12/29 01:14:55;;;;;;;7.77;5.57;;;2.70;99.90;;;;;;5032122;28;20942;-73
2020/12/29 01:17:21;;;;;;;6.23;4.77;;;2.80;99.90;;;;;;5038785;28;20194;-73
2020/12/29 01:19:47;;;;;;;5.70;4.90;;;2.80;99.90;;;;;;5047230;28;20595;-73
2020/12/29 01:22:14;;;;;;;5.03;4.27;;;2.80;99.90;;;;;;5033722;28;20245;-73
2020/12/29 01:24:40;;;;;;;6.33;5.37;;;2.80;99.90;;;;;;5051661;28;20165;-73
2020/12/29 01:27:06;;;;;;;9.30;5.40;;;2.80;99.90;;;;;;5050304;28;20405;-73
2020/12/29 01:29:31;;;;;;;6.10;4.80;;;2.90;99.90;;;;;;5037704;28;20544;-73
2020/12/29 01:31:58;;;;;;;6.03;4.60;;;2.90;99.90;;;;;;5034792;28;20213;-73
2020/12/29 01:34:24;;;;;;;6.37;5.00;;;2.90;99.90;;;;;;5036875;28;20201;-73
2020/12/29 01:36:49;;;;;;;5.43;4.30;;;2.80;99.90;;;;;;5052038;28;20417;-73
2020/12/29 01:39:15;;;;;;;4.90;4.40;;;2.90;99.90;;;;;;5046928;28;20175;-73
2020/12/29 01:41:40;;;;;;;6.10;5.50;;;2.90;99.90;;;;;;5037502;28;20210;-72
2020/12/29 01:44:14;;;;;;;5.00;4.30;;;2.90;99.90;;;;;;5047767;28;20179;-73
2020/12/29 01:46:44;;;;;;;5.23;3.80;;;2.90;99.90;;;;;;5039598;28;20213;-72
2020/12/29 01:49:11;;;;;;;6.27;4.50;;;3.00;99.90;;;;;;5039148;28;20457;-72
2020/12/29 01:51:37;;;;;;;5.93;4.10;;;3.00;99.90;;;;;;5049332;28;20806;-73
2020/12/29 01:54:04;;;;;;;6.20;4.77;;;3.00;99.90;;;;;;5034390;28;20437;-72
2020/12/29 01:56:36;;;;;;;5.90;4.27;;;3.00;99.90;;;;;;5040314;28;20464;-73
2020/12/29 01:59:08;;;;;;;9.43;4.63;;;3.00;99.90;;;;;;5053052;28;20429;-72
2020/12/29 02:01:44;;;;;;;5.97;4.80;;;3.10;99.90;;;;;;5041372;28;20457;-73
2020/12/29 02:04:11;;;;;;;6.57;4.83;;;3.10;99.90;;;;;;5034611;28;20791;-73
2020/12/29 02:06:38;;;;;;;5.53;4.93;;;3.10;99.90;;;;;;5038136;28;20429;-72
2020/12/29 02:09:09;;;;;;;8.00;5.20;;;3.20;99.90;;;;;;5033464;28;20993;-72
2020/12/29 02:11:35;;;;;;;9.80;5.20;;;3.30;99.90;;;;;;5046631;28;20899;-72
2020/12/29 02:14:03;;;;;;;7.60;5.07;;;3.30;99.90;;;;;;5038415;28;20433;-72
2020/12/29 02:16:29;;;;;;;5.67;5.10;;;3.30;99.90;;;;;;5035990;28;20437;-72
2020/12/29 02:18:55;;;;;;;5.30;4.80;;;3.30;99.90;;;;;;5053695;28;20499;-73
2020/12/29 02:21:20;;;;;;;5.90;4.80;;;3.30;99.90;;;;;;5048693;28;20174;-72
2020/12/29 02:23:46;;;;;;;9.20;4.43;;;3.30;99.90;;;;;;5052914;28;20174;-72
2020/12/29 02:26:11;;;;;;;6.80;5.23;;;3.40;99.90;;;;;;5040903;28;20616;-72
2020/12/29 02:28:37;;;;;;;7.40;4.43;;;3.40;99.90;;;;;;5041476;28;20667;-72
2020/12/29 02:31:03;;;;;;;7.23;4.90;;;3.40;99.90;;;;;;5043413;28;20224;-73
2020/12/29 02:33:28;;;;;;;5.63;4.83;;;3.40;99.90;;;;;;5054023;28;20174;-72
2020/12/29 02:35:54;;;;;;;10.07;5.00;;;3.50;99.90;;;;;;5046070;28;20197;-73
2020/12/29 02:38:24;;;;;;;5.40;4.23;;;3.50;99.90;;;;;;5047522;28;20521;-73
2020/12/29 02:40:51;;;;;;;4.93;4.43;;;3.50;99.90;;;;;;5032099;28;20183;-73
2020/12/29 02:43:16;;;;;;;4.67;4.13;;;3.50;99.90;;;;;;5041886;28;20465;-73
2020/12/29 02:45:42;;;;;;;5.20;4.70;;;3.60;99.90;;;;;;5048939;28;20429;-73
2020/12/29 02:48:09;;;;;;;8.50;4.97;;;3.70;99.90;;;;;;5046473;28;20206;-73
2020/12/29 02:50:34;;;;;;;6.80;5.00;;;3.70;99.90;;;;;;5039437;28;20430;-73
2020/12/29 02:53:00;;;;;;;7.47;5.10;;;3.70;99.90;;;;;;5052448;28;20853;-73
2020/12/29 02:55:26;;;;;;;4.80;4.40;;;3.80;99.90;;;;;;5048691;28;20188;-72
2020/12/29 02:57:53;;;;;;;6.70;4.50;;;3.80;99.90;;;;;;5051997;28;20432;-72
2020/12/29 03:00:19;;;;;;;7.93;5.00;;;3.80;99.90;;;;;;5052630;28;20447;-73
2020/12/29 03:02:44;;;;;;;5.23;3.80;;;3.80;99.90;;;;;;5039062;28;21008;-72
2020/12/29 03:05:10;;;;;;;7.60;4.67;;;3.80;99.90;;;;;;5052777;28;20429;-72
2020/12/29 03:07:36;;;;;;;9.73;6.03;;;3.80;99.90;;;;;;5046428;28;20880;-72
2020/12/29 03:10:06;;;;;;;10.00;6.83;;;3.80;99.90;;;;;;5034257;28;20174;-72
2020/12/29 03:12:35;;;;;;;7.27;4.30;;;3.80;99.90;;;;;;5037188;28;20190;-73
2020/12/29 03:15:01;;;;;;;5.10;4.07;;;3.80;99.90;;;;;;5034054;28;20538;-73
2020/12/29 03:17:27;;;;;;;5.00;4.50;;;3.80;99.90;;;;;;5053273;28;20432;-73
2020/12/29 03:19:52;;;;;;;4.40;4.07;;;3.80;99.90;;;;;;5050274;28;20176;-73
2020/12/29 03:22:18;;;;;;;5.13;4.10;;;3.80;99.90;;;;;;5045756;28;20741;-73
2020/12/29 03:24:43;;;;;;;4.70;4.30;;;3.80;99.90;;;;;;5042132;28;20187;-73
2020/12/29 03:27:09;;;;;;;5.20;4.07;;;3.80;99.90;;;;;;5032925;28;20194;-73
2020/12/29 03:29:34;;;;;;;6.37;3.90;;;3.70;99.90;;;;;;5037811;28;20179;-73
2020/12/29 03:32:00;;;;;;;5.70;4.47;;;3.80;99.90;;;;;;5051781;28;20209;-72
2020/12/29 03:34:27;;;;;;;4.37;3.93;;;3.70;99.90;;;;;;5052242;28;20174;-73
2020/12/29 03:36:53;;;;;;;7.90;4.77;;;3.70;99.90;;;;;;5044673;28;20174;-73
2020/12/29 03:39:20;;;;;;;5.70;4.40;;;3.70;99.90;;;;;;5052774;28;20415;-73
2020/12/29 03:41:45;;;;;;;4.33;3.93;;;3.70;99.90;;;;;;5039443;28;20992;-73
2020/12/29 03:44:11;;;;;;;3.90;3.43;;;3.70;99.90;;;;;;5041223;28;20433;-72
2020/12/29 03:46:38;;;;;;;5.07;3.90;;;3.70;99.90;;;;;;5047596;28;20171;-72
2020/12/29 03:49:03;;;;;;;6.73;4.03;;;3.60;99.90;;;;;;5053615;28;20202;-73
2020/12/29 03:51:29;;;;;;;5.40;4.50;;;3.60;99.90;;;;;;5038401;28;20993;-73
2020/12/29 03:53:55;;;;;;;4.43;3.77;;;3.60;99.90;;;;;;5049835;28;20174;-73
2020/12/29 03:56:21;;;;;;;5.80;3.83;;;3.50;99.90;;;;;;5049254;28;20424;-73
2020/12/29 03:58:46;;;;;;;4.70;4.27;;;3.50;99.90;;;;;;5043281;28;20245;-72
2020/12/29 04:01:12;;;;;;;6.40;4.70;;;3.50;99.90;;;;;;5042412;28;20529;-73
2020/12/29 04:03:37;;;;;;;4.83;4.40;;;3.40;99.90;;;;;;5032771;28;20525;-72
2020/12/29 04:06:03;;;;;;;4.17;3.77;;;3.40;99.90;;;;;;5033902;28;20224;-73
2020/12/29 04:08:29;;;;;;;5.63;4.50;;;3.50;99.90;;;;;;5044636;28;20238;-72
2020/12/29 04:10:55;;;;;;;5.13;4.23;;;3.50;99.90;;;;;;5046393;28;20426;-72
2020/12/29 04:13:20;;;;;;;5.50;4.33;;;3.50;99.90;;;;;;5030376;28;20234;-72
2020/12/29 04:15:46;;;;;;;5.53;5.07;;;3.60;99.90;;;;;;5034736;28;20178;-73
2020/12/29 04:18:12;;;;;;;9.43;5.40;;;3.50;99.90;;;;;;5032060;28;20183;-73
2020/12/29 04:20:38;;;;;;;4.87;4.13;;;3.60;99.90;;;;;;5035682;28;20244;-72
2020/12/29 04:23:03;;;;;;;5.23;4.40;;;3.60;99.90;;;;;;5032218;28;20712;-73
2020/12/29 04:25:29;;;;;;;7.93;5.17;;;3.70;99.90;;;;;;5040985;28;20429;-73
2020/12/29 04:27:54;;;;;;;5.13;4.53;;;3.70;99.90;;;;;;5051982;28;20683;-73
2020/12/29 04:30:20;;;;;;;6.17;5.40;;;3.70;99.90;;;;;;5053029;28;20241;-72
2020/12/29 04:32:48;;;;;;;4.70;4.23;;;3.80;99.90;;;;;;5050665;28;20197;-72
2020/12/29 04:35:14;;;;;;;7.50;4.80;;;3.80;99.90;;;;;;5044274;28;20167;-73
2020/12/29 04:37:40;;;;;;;14.23;8.30;;;3.80;99.90;;;;;;5032694;28;20496;-72
2020/12/29 04:40:06;;;;;;;38.80;22.77;;;3.80;99.90;;;;;;5031781;28;20433;-72
2020/12/29 04:42:32;;;;;;;12.50;9.50;;;3.80;99.90;;;;;;5032110;28;20206;-72
2020/12/29 04:44:57;;;;;;;5.80;5.00;;;3.80;99.90;;;;;;5047911;28;20512;-72
2020/12/29 04:47:30;;;;;;;10.53;5.10;;;3.70;99.90;;;;;;5051134;28;20449;-72
2020/12/29 04:49:57;;;;;;;10.63;4.90;;;3.70;99.90;;;;;;5044867;28;20187;-72
2020/12/29 04:52:23;;;;;;;7.13;5.70;;;3.70;99.90;;;;;;5030077;28;20446;-72
2020/12/29 04:54:53;;;;;;;8.20;6.50;;;3.80;99.90;;;;;;5035701;28;20437;-72
2020/12/29 04:57:19;;;;;;;10.40;6.87;;;3.80;99.90;;;;;;5035524;28;20947;-73
2020/12/29 04:59:45;;;;;;;10.57;7.27;;;3.90;99.90;;;;;;5038788;28;20409;-72
2020/12/29 05:02:10;;;;;;;9.53;6.70;;;3.90;99.90;;;;;;5048735;28;20546;-72
2020/12/29 05:04:36;;;;;;;8.50;6.43;;;3.90;99.90;;;;;;5053341;28;20445;-72
2020/12/29 05:07:02;;;;;;;12.33;6.43;;;3.90;99.90;;;;;;5056116;28;20171;-73
2020/12/29 05:09:27;;;;;;;6.87;5.30;;;4.00;99.90;;;;;;5052425;28;20209;-72
2020/12/29 05:11:54;;;;;;;7.73;5.87;;;4.00;99.90;;;;;;5044759;28;20183;-72
2020/12/29 05:14:21;;;;;;;7.80;4.97;;;4.00;99.90;;;;;;5042885;28;20177;-72
2020/12/29 05:16:49;;;;;;;7.27;5.87;;;3.90;99.90;;;;;;5036215;28;20426;-72
2020/12/29 05:19:18;;;;;;;6.40;4.80;;;4.00;99.90;;;;;;5055738;28;20425;-72
2020/12/29 05:21:44;;;;;;;7.77;4.50;;;4.00;99.90;;;;;;5055488;28;20575;-72
2020/12/29 05:24:22;;;;;;;6.37;5.77;;;4.00;99.90;;;;;;5055035;28;20470;-72
2020/12/29 05:26:53;;;;;;;7.70;4.90;;;4.00;99.90;;;;;;5053893;28;20529;-72
2020/12/29 05:29:21;;;;;;;7.03;4.30;;;4.00;99.90;;;;;;5055640;28;20479;-72
2020/12/29 05:31:47;;;;;;;6.80;5.20;;;3.90;99.90;;;;;;5047396;28;20786;-73
2020/12/29 05:34:21;;;;;;;7.93;5.30;;;3.90;99.90;;;;;;5036709;28;20398;-72
2020/12/29 05:36:48;;;;;;;10.40;5.20;;;3.90;99.90;;;;;;5036612;28;20174;-72
2020/12/29 05:39:14;;;;;;;5.97;4.43;;;3.90;99.90;;;;;;5036154;28;20402;-72
2020/12/29 05:41:43;;;;;;;11.70;5.40;;;3.90;99.90;;;;;;5035671;28;20974;-72
2020/12/29 05:44:12;;;;;;;6.20;5.50;;;3.80;99.90;;;;;;5036357;28;20434;-72
2020/12/29 05:46:38;;;;;;;6.90;5.80;;;3.80;99.90;;;;;;5034292;28;20426;-73
2020/12/29 05:49:05;;;;;;;9.80;6.00;;;3.80;99.90;;;;;;5043526;28;20453;-73
2020/12/29 05:51:33;;;;;;;8.10;6.50;;;3.80;99.90;;;;;;5036114;28;20433;-73
2020/12/29 05:54:01;;;;;;;8.63;5.70;;;3.80;99.90;;;;;;5036297;28;20398;-72
2020/12/29 05:56:30;;;;;;;7.90;5.63;;;3.60;99.90;;;;;;5043476;28;20421;-73
2020/12/29 05:58:56;;;;;;;9.33;6.83;;;3.60;99.90;;;;;;5056161;28;20496;-73
2020/12/29 06:01:22;;;;;;;100.20;55.03;;;3.50;99.90;;;;;;5044028;28;20418;-73
2020/12/29 06:03:50;;;;;;;12.77;9.23;;;3.40;99.90;;;;;;5036058;28;20437;-73
2020/12/29 06:06:16;;;;;;;10.60;8.00;;;3.30;99.90;;;;;;5043067;28;20184;-73
2020/12/29 06:08:42;;;;;;;8.70;6.60;;;3.40;99.90;;;;;;5055276;28;20444;-73
2020/12/29 06:11:21;;;;;;;7.53;6.73;;;3.40;99.90;;;;;;5050715;28;20780;-73
2020/12/29 06:13:47;;;;;;;12.10;6.87;;;3.20;99.90;;;;;;5035364;28;20899;-73
2020/12/29 06:16:17;;;;;;;11.30;7.20;;;3.30;99.90;;;;;;5037830;28;20509;-73
2020/12/29 06:18:45;;;;;;;7.47;6.03;;;3.20;99.90;;;;;;5040037;28;20920;-72
2020/12/29 06:21:14;;;;;;;8.70;6.17;;;3.30;99.90;;;;;;5037049;28;20445;-73
2020/12/29 06:23:48;;;;;;;8.90;6.20;;;3.30;99.90;;;;;;5047091;28;20462;-73
2020/12/29 06:26:20;;;;;;;11.20;7.30;;;3.20;99.90;;;;;;5041756;28;20512;-72
2020/12/29 06:28:50;;;;;;;8.60;7.60;;;3.00;99.90;;;;;;5034870;28;20953;-72
2020/12/29 06:31:36;;;;;;;11.57;7.40;;;3.10;99.90;;;;;;5038733;28;20486;-72
2020/12/29 06:34:05;;;;;;;16.83;9.50;;;3.00;99.90;;;;;;5050821;28;20440;-73
2020/12/29 06:36:34;;;;;;;19.00;8.30;;;2.90;99.90;;;;;;5048808;28;20856;-73
2020/12/29 06:39:07;;;;;;;13.60;8.53;;;2.90;99.90;;;;;;5042339;28;20429;-73
2020/12/29 06:41:34;;;;;;;12.03;8.63;;;2.90;99.90;;;;;;5035079;28;20442;-73
2020/12/29 06:44:02;;;;;;;9.27;7.20;;;3.00;99.90;;;;;;5046586;28;20425;-72
2020/12/29 06:46:28;;;;;;;13.53;8.77;;;3.10;99.90;;;;;;5039316;28;20426;-72
2020/12/29 06:48:57;;;;;;;15.30;6.63;;;3.10;99.90;;;;;;5046909;28;20460;-72
2020/12/29 06:51:23;;;;;;;19.77;6.60;;;3.10;99.90;;;;;;5052578;28;20464;-72
2020/12/29 06:53:48;;;;;;;9.93;5.90;;;3.00;99.90;;;;;;5055016;28;20402;-72
2020/12/29 06:56:16;;;;;;;8.93;5.50;;;2.90;99.90;;;;;;5052431;28;20425;-72
2020/12/29 06:58:42;;;;;;;8.90;5.57;;;2.80;99.90;;;;;;5054698;28;20174;-72
2020/12/29 07:01:32;;;;;;;6.40;5.70;;;2.90;99.90;;;;;;5044296;28;20445;-72
2020/12/29 07:04:06;;;;;;;12.20;5.50;;;2.80;99.90;;;;;;5041202;28;20957;-72
2020/12/29 07:06:33;;;;;;;10.20;5.53;;;2.60;99.90;;;;;;5053914;28;20430;-72
2020/12/29 07:09:15;;;;;;;9.43;5.47;;;2.70;99.90;;;;;;5036847;28;20488;-72
2020/12/29 07:12:00;;;;;;;11.30;5.97;;;2.70;99.90;;;;;;5038694;28;20479;-72
2020/12/29 07:14:31;;;;;;;8.13;5.03;;;2.60;99.90;;;;;;5041426;28;20437;-72
2020/12/29 07:16:59;;;;;;;11.40;7.00;;;2.80;99.90;;;;;;5047851;28;20969;-72
2020/12/29 07:19:26;;;;;;;11.43;5.87;;;2.70;99.90;;;;;;5046868;28;20430;-73
2020/12/29 07:21:53;;;;;;;10.73;5.43;;;2.70;99.90;;;;;;5038045;28;20816;-72
2020/12/29 07:24:19;;;;;;;6.90;4.57;;;2.60;99.90;;;;;;5050405;28;20553;-72
2020/12/29 07:26:45;;;;;;;9.20;4.40;;;2.50;99.90;;;;;;5045300;28;20937;-73
2020/12/29 07:29:11;;;;;;;7.17;5.30;;;2.50;99.90;;;;;;5038001;28;20294;-72
2020/12/29 07:31:41;;;;;;;6.20;4.97;;;2.50;99.90;;;;;;5040246;28;20449;-73
2020/12/29 07:34:12;;;;;;;9.07;5.20;;;2.60;99.90;;;;;;5050077;28;20428;-73
2020/12/29 07:36:46;;;;;;;15.33;6.73;;;2.50;99.90;;;;;;5048188;28;20438;-72
2020/12/29 07:39:14;;;;;;;10.40;6.20;;;2.50;99.90;;;;;;5037743;28;20437;-73
2020/12/29 07:41:40;;;;;;;8.30;5.43;;;2.40;99.90;;;;;;5032735;28;20465;-72
2020/12/29 07:44:06;;;;;;;8.10;5.17;;;2.30;99.90;;;;;;5043290;28;20616;-72
2020/12/29 07:46:32;;;;;;;18.53;5.77;;;2.30;99.90;;;;;;5052756;28;20425;-73
2020/12/29 07:49:02;;;;;;;9.50;5.20;;;2.30;99.90;;;;;;5036575;28;20453;-73
2020/12/29 07:51:27;;;;;;;10.87;7.67;;;2.20;99.90;;;;;;5032033;28;20537;-72
2020/12/29 07:53:53;;;;;;;10.00;6.43;;;2.20;99.90;;;;;;5033321;28;20444;-72
2020/12/29 07:56:19;;;;;;;10.60;6.80;;;2.20;99.90;;;;;;5036680;28;20175;-72
2020/12/29 07:58:45;;;;;;;8.33;6.60;;;2.20;99.90;;;;;;5044266;28;20441;-72
2020/12/29 08:01:14;;;;;;;11.70;6.63;;;2.10;99.90;;;;;;5036016;28;20852;-72
2020/12/29 08:03:48;;;;;;;14.33;5.97;;;2.10;99.90;;;;;;5032447;28;20206;-72
2020/12/29 08:06:14;;;;;;;8.27;5.90;;;2.10;99.90;;;;;;5032964;28;20465;-72
2020/12/29 08:08:41;;;;;;;14.30;7.83;;;2.10;99.90;;;;;;5033379;28;20454;-72
2020/12/29 08:11:08;;;;;;;8.37;6.43;;;2.10;99.90;;;;;;5033328;28;20434;-72
2020/12/29 08:13:34;;;;;;;13.27;7.40;;;2.20;99.90;;;;;;5033699;28;20488;-72
2020/12/29 08:16:00;;;;;;;10.37;6.00;;;2.20;99.90;;;;;;5042745;28;20438;-74
2020/12/29 08:18:25;;;;;;;13.00;8.10;;;2.30;99.90;;;;;;5034951;28;20248;-72
2020/12/29 08:20:54;;;;;;;18.20;6.63;;;2.40;99.90;;;;;;5037998;28;20261;-72
2020/12/29 08:23:27;;;;;;;12.13;6.87;;;2.40;99.90;;;;;;5057322;28;20205;-72
2020/12/29 08:25:58;;;;;;;17.43;7.00;;;2.50;99.90;;;;;;5050289;28;20422;-72
2020/12/29 08:28:25;;;;;;;13.43;7.70;;;2.60;99.90;;;;;;5031689;28;20457;-72
2020/12/29 08:30:52;;;;;;;12.07;9.47;;;2.60;99.90;;;;;;5031554;28;20430;-72
2020/12/29 08:33:22;;;;;;;12.73;9.53;;;2.60;99.90;;;;;;5033541;28;20439;-72
2020/12/29 08:35:55;;;;;;;20.33;11.30;;;2.70;99.90;;;;;;5032842;28;20410;-72
2020/12/29 08:38:31;;;;;;;12.57;7.27;;;2.70;99.90;;;;;;5033296;28;20409;-72
2020/12/29 08:41:03;;;;;;;11.10;7.23;;;2.80;99.90;;;;;;5052440;28;20403;-72
2020/12/29 08:43:28;;;;;;;15.43;6.53;;;2.80;99.90;;;;;;5049575;28;20505;-72
2020/12/29 08:46:02;;;;;;;13.00;7.90;;;2.80;99.90;;;;;;5052682;28;20401;-72
2020/12/29 08:48:29;;;;;;;11.23;7.43;;;2.90;99.90;;;;;;5032480;28;20282;-73
2020/12/29 08:50:55;;;;;;;20.03;9.07;;;3.00;99.90;;;;;;5038082;28;20895;-72
2020/12/29 08:53:25;;;;;;;13.40;7.53;;;2.90;99.90;;;;;;5033705;28;20437;-75
2020/12/29 08:55:51;;;;;;;19.87;7.87;;;3.00;99.90;;;;;;5032800;28;20917;-72
2020/12/29 08:58:24;;;;;;;10.50;7.80;;;3.10;99.90;;;;;;5032551;28;20497;-72
2020/12/29 09:00:50;;;;;;;12.00;8.47;;;3.10;99.90;;;;;;5031503;28;20418;-72
2020/12/29 09:03:22;;;;;;;11.20;7.73;;;3.20;99.90;;;;;;5034986;28;20449;-72
2020/12/29 09:05:53;;;;;;;10.33;8.00;;;3.10;99.90;;;;;;5052558;28;20167;-72
2020/12/29 09:08:29;;;;;;;9.90;7.40;;;3.10;99.90;;;;;;5052687;28;20911;-71
2020/12/29 09:11:14;;;;;;;12.43;8.43;;;3.10;99.90;;;;;;5049789;28;20460;-72
2020/12/29 09:14:02;;;;;;;15.40;7.90;;;3.10;99.90;;;;;;5035292;28;20443;-73
2020/12/29 09:16:28;;;;;;;13.23;8.30;;;3.10;99.90;;;;;;5032423;28;20410;-73
2020/12/29 09:18:54;;;;;;;14.03;8.97;;;3.20;99.90;;;;;;5031646;28;20471;-73
2020/12/29 09:21:25;;;;;;;15.03;9.37;;;3.20;99.90;;;;;;5036692;28;20210;-72
2020/12/29 09:24:02;;;;;;;24.80;9.60;;;3.40;99.90;;;;;;5047882;28;20171;-72
2020/12/29 09:26:29;;;;;;;13.83;7.87;;;3.70;99.90;;;;;;5035080;28;20432;-72
2020/12/29 09:28:55;;;;;;;12.00;7.70;;;4.10;99.90;;;;;;5052308;28;20518;-73
2020/12/29 09:31:29;;;;;;;15.50;7.50;;;4.20;99.90;;;;;;5033128;28;20453;-73
2020/12/29 09:33:57;;;;;;;15.37;8.37;;;4.40;99.90;;;;;;5032405;28;20839;-73
2020/12/29 09:36:25;;;;;;;9.63;7.10;;;4.70;99.90;;;;;;5032256;28;20434;-73
2020/12/29 09:38:52;;;;;;;10.20;6.80;;;5.10;99.90;;;;;;5032614;28;20414;-72
2020/12/29 09:41:18;;;;;;;15.63;7.17;;;5.40;99.90;;;;;;5030820;28;20431;-72
2020/12/29 09:43:48;;;;;;;11.40;8.20;;;5.20;99.90;;;;;;5031968;28;20429;-72
2020/12/29 09:46:14;;;;;;;13.17;7.03;;;4.70;99.90;;;;;;5032216;28;20182;-72
2020/12/29 09:48:40;;;;;;;15.40;8.43;;;4.50;99.90;;;;;;5031896;28;20469;-72
2020/12/29 09:51:09;;;;;;;16.40;8.80;;;4.30;99.90;;;;;;5031856;28;20402;-72
2020/12/29 09:53:34;;;;;;;12.23;8.47;;;4.10;99.90;;;;;;5037745;28;20422;-73
2020/12/29 09:56:00;;;;;;;15.63;9.67;;;4.00;99.90;;;;;;5054370;28;20420;-73
2020/12/29 09:58:26;;;;;;;17.10;9.67;;;4.10;99.90;;;;;;5054761;28;20178;-73
2020/12/29 10:00:52;;;;;;;14.80;10.50;;;4.00;99.90;;;;;;5055715;28;20698;-72
2020/12/29 10:03:17;;;;;;;14.13;10.20;;;4.00;99.90;;;;;;5046470;28;20195;-72
2020/12/29 10:05:44;;;;;;;14.83;9.13;;;4.00;99.90;;;;;;5035602;28;20460;-71
2020/12/29 10:08:11;;;;;;;15.63;11.17;;;4.00;99.90;;;;;;5036037;28;20237;-72
2020/12/29 10:10:37;;;;;;;15.57;9.90;;;3.90;99.90;;;;;;5035273;28;20409;-72
2020/12/29 10:13:03;;;;;;;18.90;10.87;;;3.90;99.90;;;;;;5035434;28;20426;-72
2020/12/29 10:15:29;;;;;;;15.47;10.47;;;3.90;99.90;;;;;;5035712;28;20175;-72
2020/12/29 10:17:54;;;;;;;14.80;9.80;;;4.00;99.90;;;;;;5042263;28;20429;-72
2020/12/29 10:20:21;;;;;;;14.23;9.70;;;4.00;99.90;;;;;;5055165;28;20245;-72
2020/12/29 10:22:47;;;;;;;12.50;9.90;;;4.10;99.90;;;;;;5040070;28;20202;-72
2020/12/29 10:25:16;;;;;;;21.13;11.90;;;4.10;99.90;;;;;;5036436;28;20420;-72
2020/12/29 10:27:45;;;;;;;15.13;11.17;;;4.10;99.90;;;;;;5036994;28;20463;-72
2020/12/29 10:30:11;;;;;;;20.40;15.83;;;4.10;99.90;;;;;;5035583;28;20430;-72
2020/12/29 10:32:38;;;;;;;17.17;10.27;;;4.20;99.90;;;;;;5052077;28;20453;-72
2020/12/29 10:35:04;;;;;;;15.30;11.53;;;4.30;99.90;;;;;;5054523;28;20397;-72
2020/12/29 10:37:30;;;;;;;11.83;10.30;;;4.30;99.90;;;;;;5037230;28;20433;-72
2020/12/29 10:39:56;;;;;;;13.80;10.60;;;4.30;99.90;;;;;;5044582;28;20791;-72
2020/12/29 10:42:21;;;;;;;15.90;10.40;;;4.50;99.90;;;;;;5055969;28;20191;-72
2020/12/29 10:44:47;;;;;;;17.03;12.00;;;4.60;99.90;;;;;;5055993;28;20167;-73
2020/12/29 10:47:13;;;;;;;16.10;10.70;;;4.60;99.90;;;;;;5036576;28;20194;-73
2020/12/29 10:49:38;;;;;;;17.73;11.30;;;4.70;99.90;;;;;;5043082;28;20207;-73
2020/12/29 10:52:04;;;;;;;18.10;11.17;;;4.60;99.90;;;;;;5052922;28;20266;-73
2020/12/29 10:54:29;;;;;;;14.57;9.83;;;4.70;99.90;;;;;;5053920;28;20158;-73
2020/12/29 10:56:55;;;;;;;19.27;10.63;;;4.90;99.90;;;;;;5053952;28;20187;-72
2020/12/29 10:59:21;;;;;;;19.00;10.63;;;4.90;99.90;;;;;;5053936;28;20167;-73
2020/12/29 11:01:46;;;;;;;16.13;10.47;;;5.00;99.90;;;;;;5053017;28;20186;-73
2020/12/29 11:04:12;;;;;;;13.03;10.17;;;5.10;99.90;;;;;;5039505;28;20175;-73
2020/12/29 11:06:37;;;;;;;14.87;10.00;;;5.20;99.90;;;;;;5034295;28;20163;-73
2020/12/29 11:09:03;;;;;;;21.10;11.03;;;5.20;99.90;;;;;;5033715;28;20191;-73
2020/12/29 11:11:29;;;;;;;14.10;9.90;;;5.10;99.90;;;;;;5039926;28;20554;-73
2020/12/29 11:13:55;;;;;;;20.70;11.70;;;5.10;99.90;;;;;;5053606;28;20405;-73
2020/12/29 11:16:21;;;;;;;15.63;10.63;;;5.10;99.90;;;;;;5053562;28;20167;-73
2020/12/29 11:18:49;;;;;;;20.10;10.23;;;5.10;99.90;;;;;;5052633;28;20562;-73
2020/12/29 11:21:16;;;;;;;17.43;10.57;;;5.00;99.90;;;;;;5053191;28;20517;-73
2020/12/29 11:23:41;;;;;;;16.57;10.93;;;5.10;99.90;;;;;;5055897;28;20417;-73
2020/12/29 11:26:07;;;;;;;18.70;11.97;;;5.10;99.90;;;;;;5055647;28;20410;-73
2020/12/29 11:28:33;;;;;;;13.47;11.77;;;5.10;99.90;;;;;;5054563;28;20206;-73
2020/12/29 11:30:58;;;;;;;14.23;11.07;;;5.20;99.90;;;;;;5050130;28;20167;-73
2020/12/29 11:33:24;;;;;;;17.70;10.17;;;5.20;99.90;;;;;;5049491;28;20315;-72
2020/12/29 11:35:50;;;;;;;10.97;8.40;;;5.40;99.90;;;;;;5073196;28;20159;-72
2020/12/29 11:38:21;;;;;;;13.60;9.40;;;5.50;99.90;;;;;;5058997;28;20170;-72
2020/12/29 11:40:47;;;;;;;13.00;9.17;;;5.80;99.90;;;;;;5044713;28;20208;-73
2020/12/29 11:43:12;;;;;;;11.70;10.00;;;6.00;99.90;;;;;;5034185;28;20521;-73
2020/12/29 11:45:39;;;;;;;10.30;8.67;;;6.30;99.90;;;;;;5050419;28;20427;-72
2020/12/29 11:48:05;;;;;;;13.00;9.93;;;6.30;99.90;;;;;;5053237;28;20679;-73
2020/12/29 11:50:30;;;;;;;12.50;8.10;;;6.20;99.90;;;;;;5051628;28;20417;-72
2020/12/29 11:52:56;;;;;;;13.43;9.47;;;6.30;99.90;;;;;;5046869;28;20280;-72
2020/12/29 11:55:22;;;;;;;14.77;8.40;;;6.20;99.90;;;;;;5052640;28;20175;-72
2020/12/29 11:57:48;;;;;;;11.17;9.03;;;6.00;99.90;;;;;;5050937;28;20178;-72
2020/12/29 12:00:14;;;;;;;15.50;9.17;;;6.20;99.90;;;;;;5045680;28;20179;-72
2020/12/29 12:02:39;;;;;;;12.37;8.83;;;6.20;99.90;;;;;;5046962;28;20969;-73
2020/12/29 12:05:05;;;;;;;12.27;9.03;;;6.40;99.90;;;;;;5051887;28;20181;-72
2020/12/29 12:07:30;;;;;;;9.87;6.97;;;6.40;99.90;;;;;;5052743;28;20637;-72
2020/12/29 12:09:56;;;;;;;9.87;7.47;;;6.90;99.90;;;;;;5052818;28;20534;-72
2020/12/29 12:12:22;;;;;;;10.90;7.47;;;7.30;99.90;;;;;;5046755;28;20187;-75
2020/12/29 12:14:47;;;;;;;11.90;6.97;;;8.20;99.90;;;;;;5049786;28;20170;-72
2020/12/29 12:17:13;;;;;;;12.80;6.67;;;9.10;99.90;;;;;;5036085;28;20172;-73
2020/12/29 12:19:39;;;;;;;5.83;4.83;;;9.50;99.90;;;;;;5046526;28;20550;-72
2020/12/29 12:22:05;;;;;;;7.20;6.20;;;9.90;99.90;;;;;;5052030;28;20694;-72
2020/12/29 12:24:31;;;;;;;8.60;6.40;;;9.30;99.90;;;;;;5052326;28;20216;-72
2020/12/29 12:26:56;;;;;;;8.60;5.80;;;9.20;99.90;;;;;;5042003;28;21009;-72
2020/12/29 12:29:22;;;;;;;9.00;6.57;;;9.10;99.90;;;;;;5032234;28;20306;-72
2020/12/29 12:31:47;;;;;;;6.80;5.07;;;9.10;99.90;;;;;;5032237;28;20184;-72
2020/12/29 12:34:13;;;;;;;7.97;5.93;;;8.60;99.90;;;;;;5032261;28;20528;-72
2020/12/29 12:36:39;;;;;;;9.80;6.37;;;8.60;99.90;;;;;;5032314;28;20167;-72
2020/12/29 12:39:05;;;;;;;8.43;6.07;;;8.70;99.90;;;;;;5032194;28;20160;-72
2020/12/29 12:41:31;;;;;;;7.13;6.27;;;9.20;99.90;;;;;;5034443;28;20442;-73
2020/12/29 12:43:57;;;;;;;7.20;5.57;;;8.70;99.90;;;;;;5034250;28;20429;-72
2020/12/29 12:46:23;;;;;;;6.00;5.40;;;8.90;99.90;;;;;;5035927;28;20174;-72
2020/12/29 12:48:48;;;;;;;7.20;5.70;;;9.10;99.90;;;;;;5039089;28;20306;-73
2020/12/29 12:51:14;;;;;;;8.80;6.37;;;9.10;99.90;;;;;;5046398;28;20558;-72